Hovedside
METAR-TAF:

METAR-TAF

Lufthavner :

Båtsfjord, Norge

Båtsfjord lufthavn

breddegrad: 70-38N, lengdegrad: 029-44E, høyde over havet: 10 m

Gjeldene værobservasjon

Denne rapporten ble laget for 8 timer og 23 minutter siden, klokken 21:50 UTC
Vind 2 kt fra skiftende retning
Temperatur -1°C
Luftfuktighet 86%
Trykk 994 hPa
Sikt 10 km eller mer
Få skyer i en høyde av 2300 ft
Spredte skyer i en høyde av 4600 ft

METAR: ENBS 232150Z VRB02KT 9999 FEW023 SCT046 M01/M03 Q0994

Tid: 07:13 (06:13 UTC)


TAF: fraværende

Værobservasjoner og værvarsel for over 4000 flyplasser (METAR- og TAF-rapporter).

Tilgjengelige stasjoner er representert av de røde og gule prikkene på kartet.

Hold musepekeren over prikken for å se navnet på stasjonen.

Klikk så for å se værobservasjoner og -varsler.

For å forandre kartet kan du klikke på den grønne knappen med svart kryss for å zoome inn, på den grønne knappen med strek for å zoome ut, eller på de grønne pilene for å se tilstøtende kart.


METAR-TAF: